METAR Data
IDs: Format: Raw Decoded Include TAF

Data at: 0535 UTC 24 Sep 2018

KEDJ 240515Z AUTO 07003KT 10SM CLR 14/12 A3017 RMK AO1
KEDJ 240455Z AUTO 07003KT 10SM CLR 14/11 A3017 RMK AO1
KEDJ 240435Z AUTO 09004KT 10SM CLR 15/11 A3017 RMK AO1
KEDJ 240415Z AUTO 09007KT 10SM CLR 15/11 A3017 RMK AO1
KEDJ 240355Z AUTO 09005KT 10SM CLR 15/10 A3017 RMK AO1
KEDJ 240335Z AUTO 11006KT 10SM CLR 15/10 A3017 RMK AO1
KEDJ 240315Z AUTO 11005KT 10SM CLR 15/10 A3017 RMK AO1
KEDJ 240255Z AUTO 10007KT 10SM CLR 15/10 A3016 RMK AO1
KEDJ 240235Z AUTO 10005KT 10SM CLR 15/10 A3016 RMK AO1
KEDJ 240215Z AUTO 10003KT 10SM CLR 15/09 A3016 RMK AO1
KEDJ 240155Z AUTO 11003KT 10SM CLR 15/09 A3017 RMK AO1
KEDJ 240135Z AUTO 08003KT 10SM CLR 15/09 A3016 RMK AO1
KEDJ 240115Z AUTO 07003KT 10SM CLR 14/09 A3016 RMK AO1
KEDJ 240055Z AUTO 10003KT 10SM CLR 15/09 A3016 RMK AO1
KEDJ 240035Z AUTO 10003KT 10SM CLR 15/08 A3016 RMK AO1
KEDJ 240015Z AUTO 10003KT 10SM CLR 15/09 A3015 RMK AO1
KEDJ 232355Z AUTO 10004KT 10SM CLR 17/09 A3015 RMK AO1
KEDJ 232335Z AUTO 09003KT 10SM CLR 17/08 A3015 RMK AO1
KEDJ 232315Z AUTO 09003KT 10SM CLR 19/08 A3014 RMK AO1
KEDJ 232255Z AUTO 10003KT 10SM CLR 19/08 A3015 RMK AO1
KEDJ 232235Z AUTO 10005KT 10SM CLR 20/08 A3014 RMK AO1
KEDJ 232215Z AUTO 10004KT 10SM CLR 20/08 A3014 RMK AO1
KEDJ 232155Z AUTO 10005KT 10SM CLR 21/08 A3014 RMK AO1
KEDJ 232135Z AUTO 11005KT 10SM CLR 21/08 A3013 RMK AO1
KEDJ 232115Z AUTO 12008KT 10SM CLR 21/08 A3013 RMK AO1
KEDJ 232055Z AUTO 10007KT 10SM CLR 22/08 A3013 RMK AO1
KEDJ 232035Z AUTO 07008KT 10SM CLR 21/08 A3013 RMK AO1
KEDJ 232015Z AUTO 11007KT 10SM CLR 21/08 A3013 RMK AO1
KEDJ 231955Z AUTO 06008KT 10SM CLR 21/09 A3014 RMK AO1
KEDJ 231935Z AUTO 09009KT 10SM CLR 21/08 A3014 RMK AO1
KEDJ 231915Z AUTO 10009KT 10SM CLR 20/08 A3014 RMK AO1
KEDJ 231855Z AUTO 06010KT 10SM CLR 20/09 A3015 RMK AO1
KEDJ 231835Z AUTO 08009KT 020V100 10SM CLR 20/09 A3016 RMK AO1
KEDJ 231815Z AUTO 08008KT 10SM CLR 19/09 A3016 RMK AO1
KEDJ 231755Z AUTO 06008KT 10SM 19/09 A3017 RMK AO1
KEDJ 231735Z AUTO 08006KT 10SM CLR 18/09 A3018 RMK AO1
KEDJ 231715Z AUTO 09006KT 10SM CLR 18/09 A3018 RMK AO1
KEDJ 231655Z AUTO 10008KT 10SM CLR 17/10 A3019 RMK AO1
KEDJ 231635Z AUTO 07009KT 10SM CLR 17/10 A3019 RMK AO1
KEDJ 231615Z AUTO 07008KT 10SM CLR 17/10 A3019 RMK AO1
KEDJ 231555Z AUTO 09009KT 10SM CLR 17/10 A3020 RMK AO1
KEDJ 231535Z AUTO 10006KT 10SM CLR 16/10 A3021 RMK AO1
KEDJ 231515Z AUTO 08007KT 060V140 10SM CLR 15/10 A3021 RMK AO1
KEDJ 231455Z AUTO 09007KT 10SM CLR 15/10 A3020 RMK AO1
KEDJ 231435Z AUTO 07007KT 10SM CLR 14/10 A3020 RMK AO1
KEDJ 231415Z AUTO 07009KT 10SM CLR 14/10 A3020 RMK AO1
KEDJ 231355Z AUTO 08008KT 10SM CLR 13/10 A3020 RMK AO1
KEDJ 231335Z AUTO 08005KT 10SM CLR 12/11 A3020 RMK AO1
KEDJ 231315Z AUTO 10003KT 10SM CLR 12/11 A3020 RMK AO1
KEDJ 231255Z AUTO 07004KT 10SM CLR 10/10 A3019 RMK AO1
KEDJ 231235Z AUTO 06004KT 10SM CLR 10/10 A3019 RMK AO1
KEDJ 231215Z AUTO 00000KT 10SM CLR 09/09 A3019 RMK AO1
KEDJ 231155Z AUTO 05003KT 10SM CLR 08/08 A3018 RMK AO1
KEDJ 231135Z AUTO 03004KT 10SM CLR 08/08 A3018 RMK AO1
KEDJ 231115Z AUTO 00000KT 10SM CLR 09/09 A3018 RMK AO1
KEDJ 231055Z AUTO 00000KT 10SM CLR 09/09 A3017 RMK AO1
KEDJ 231035Z AUTO 00000KT 10SM CLR 09/09 A3017 RMK AO1
KEDJ 231015Z AUTO 05004KT 10SM CLR 09/09 A3017 RMK AO1
KEDJ 230955Z AUTO 06003KT 10SM CLR 09/09 A3017 RMK AO1
KEDJ 230935Z AUTO 00000KT 10SM CLR 09/09 A3017 RMK AO1
KEDJ 230915Z AUTO 02003KT 10SM CLR 09/09 A3017 RMK AO1
KEDJ 230855Z AUTO 03004KT 10SM CLR 09/09 A3017 RMK AO1
KEDJ 230835Z AUTO 07003KT 10SM CLR 09/09 A3017 RMK AO1
KEDJ 230815Z AUTO 06005KT 10SM CLR 08/08 A3017 RMK AO1
KEDJ 230755Z AUTO 05003KT 10SM CLR 09/09 A3018 RMK AO1
KEDJ 230735Z AUTO 10003KT 10SM CLR 09/09 A3018 RMK AO1
KEDJ 230715Z AUTO 05003KT 10SM CLR 09/09 A3018 RMK AO1
KEDJ 230655Z AUTO 00000KT 10SM CLR 10/10 A3019 RMK AO1
KEDJ 230635Z AUTO 04003KT 10SM CLR 09/09 A3019 RMK AO1
KEDJ 230615Z AUTO 09003KT 10SM CLR 09/09 A3019 RMK AO1
KEDJ 230555Z AUTO 08003KT 10SM CLR 10/10 A3020 RMK AO1
KEDJ 230535Z AUTO 00000KT 10SM CLR 09/09 A3021 RMK AO1
KEDJ 230515Z AUTO 05004KT 10SM CLR 09/09 A3021 RMK AO1
KEDJ 230455Z AUTO 04004KT 10SM CLR 09/09 A3021 RMK AO1
KEDJ 230435Z AUTO 03003KT 10SM CLR 09/09 A3022 RMK AO1
KEDJ 230415Z AUTO 00000KT 10SM CLR 10/10 A3021 RMK AO1
KEDJ 230355Z AUTO 00000KT 10SM CLR 10/10 A3022 RMK AO1
KEDJ 230335Z AUTO 08003KT 10SM CLR 10/10 A3022 RMK AO1
KEDJ 230315Z AUTO 00000KT 10SM CLR 10/10 A3023 RMK AO1
KEDJ 230255Z AUTO 07003KT 10SM CLR 11/10 A3023 RMK AO1
KEDJ 230235Z AUTO 07003KT 10SM CLR 11/10 A3023 RMK AO1
KEDJ 230215Z AUTO 06005KT 10SM CLR 12/11 A3022 RMK AO1
KEDJ 230155Z AUTO 05004KT 10SM CLR 11/11 A3022 RMK AO1
KEDJ 230135Z AUTO 05003KT 10SM CLR 12/11 A3023 RMK AO1
KEDJ 230115Z AUTO 00000KT 10SM CLR 12/11 A3023 RMK AO1
KEDJ 230055Z AUTO 00000KT 10SM CLR 12/11 A3022 RMK AO1
KEDJ 230035Z AUTO 00000KT 10SM CLR 13/11 A3022 RMK AO1
KEDJ 230015Z AUTO 00000KT 10SM CLR 13/11 A3022 RMK AO1
KEDJ 222355Z AUTO 00000KT 10SM CLR 13/11 A3021 RMK AO1
KEDJ 222335Z AUTO 04004KT 10SM CLR 14/11 A3021 RMK AO1
KEDJ 222315Z AUTO 00000KT 10SM CLR 14/10 A3021 RMK AO1
KEDJ 222255Z AUTO 05004KT 10SM CLR 14/10 A3022 RMK AO1
KEDJ 222235Z AUTO 04004KT 10SM CLR 15/10 A3022 RMK AO1
KEDJ 222215Z AUTO 04007KT 10SM CLR 15/10 A3021 RMK AO1
KEDJ 222155Z AUTO 04007KT 10SM CLR 15/10 A3021 RMK AO1
KEDJ 222135Z AUTO 06005KT 10SM CLR 15/10 A3021 RMK AO1
KEDJ 222115Z AUTO 07006KT 10SM CLR 16/10 A3022 RMK AO1
KEDJ 222055Z AUTO 03006KT 10SM CLR 16/10 A3023 RMK AO1
KEDJ 222035Z AUTO 05007KT 10SM CLR 16/10 A3023 RMK AO1
KEDJ 222015Z AUTO 05008KT 10SM CLR 16/10 A3022 RMK AO1
KEDJ 221955Z AUTO 05008KT 10SM CLR 16/10 A3023 RMK AO1
KEDJ 221935Z AUTO 05006KT 10SM CLR 16/09 A3024 RMK AO1
KEDJ 221915Z AUTO 07006KT 10SM CLR 16/09 A3024 RMK AO1
KEDJ 221855Z AUTO 08007KT 10SM CLR 16/09 A3025 RMK AO1
KEDJ 221835Z AUTO 10006KT 10SM CLR 16/10 A3025 RMK AO1
KEDJ 221815Z AUTO 07005KT 10SM CLR 16/10 A3026 RMK AO1
KEDJ 221755Z AUTO 08007KT 10SM CLR 16/09 A3027 RMK AO1